sensor_id;sensor_type;location;lat;lon;timestamp;P1;durP1;ratioP1;P2;durP2;ratioP2
76978;SDS011;65911;47.502;19.148;2024-03-02T00:01:51;25.85;;;14.25;;
76978;SDS011;65911;47.502;19.148;2024-03-02T00:04:53;22.73;;;12.82;;
76978;SDS011;65911;47.502;19.148;2024-03-02T00:07:59;26.73;;;14.90;;
76978;SDS011;65911;47.502;19.148;2024-03-02T00:11:02;23.48;;;14.32;;
76978;SDS011;65911;47.502;19.148;2024-03-02T00:14:04;24.42;;;13.20;;
76978;SDS011;65911;47.502;19.148;2024-03-02T00:17:08;25.07;;;13.07;;
76978;SDS011;65911;47.502;19.148;2024-03-02T00:20:21;30.30;;;13.85;;
76978;SDS011;65911;47.502;19.148;2024-03-02T00:23:25;26.42;;;13.70;;
76978;SDS011;65911;47.502;19.148;2024-03-02T00:26:29;26.47;;;13.83;;
76978;SDS011;65911;47.502;19.148;2024-03-02T00:29:31;25.55;;;13.00;;
76978;SDS011;65911;47.502;19.148;2024-03-02T00:32:34;28.92;;;13.63;;
76978;SDS011;65911;47.502;19.148;2024-03-02T00:35:36;24.08;;;13.65;;
76978;SDS011;65911;47.502;19.148;2024-03-02T00:38:56;23.63;;;13.13;;
76978;SDS011;65911;47.502;19.148;2024-03-02T00:41:59;25.92;;;13.70;;
76978;SDS011;65911;47.502;19.148;2024-03-02T00:45:01;23.55;;;12.93;;
76978;SDS011;65911;47.502;19.148;2024-03-02T00:48:09;21.30;;;13.17;;
76978;SDS011;65911;47.502;19.148;2024-03-02T00:51:11;23.63;;;13.32;;
76978;SDS011;65911;47.502;19.148;2024-03-02T00:54:14;23.13;;;12.60;;
76978;SDS011;65911;47.502;19.148;2024-03-02T00:57:17;26.50;;;13.97;;
76978;SDS011;65911;47.502;19.148;2024-03-02T01:00:19;23.08;;;13.07;;
76978;SDS011;65911;47.502;19.148;2024-03-02T01:03:22;22.92;;;13.43;;
76978;SDS011;65911;47.502;19.148;2024-03-02T01:06:24;26.58;;;13.45;;
76978;SDS011;65911;47.502;19.148;2024-03-02T01:09:26;24.27;;;13.18;;
76978;SDS011;65911;47.502;19.148;2024-03-02T01:12:29;22.17;;;13.57;;
76978;SDS011;65911;47.502;19.148;2024-03-02T01:15:31;24.65;;;12.93;;
76978;SDS011;65911;47.502;19.148;2024-03-02T01:18:33;21.23;;;12.27;;
76978;SDS011;65911;47.502;19.148;2024-03-02T01:21:36;22.45;;;12.25;;
76978;SDS011;65911;47.502;19.148;2024-03-02T01:24:38;23.63;;;12.55;;
76978;SDS011;65911;47.502;19.148;2024-03-02T01:27:40;21.73;;;12.93;;
76978;SDS011;65911;47.502;19.148;2024-03-02T01:30:42;22.60;;;12.60;;
76978;SDS011;65911;47.502;19.148;2024-03-02T01:33:45;20.40;;;12.63;;
76978;SDS011;65911;47.502;19.148;2024-03-02T01:36:47;20.83;;;12.18;;
76978;SDS011;65911;47.502;19.148;2024-03-02T01:39:49;28.10;;;12.13;;
76978;SDS011;65911;47.502;19.148;2024-03-02T01:42:52;22.23;;;12.48;;
76978;SDS011;65911;47.502;19.148;2024-03-02T01:46:00;23.73;;;13.20;;
76978;SDS011;65911;47.502;19.148;2024-03-02T01:49:02;23.20;;;12.90;;
76978;SDS011;65911;47.502;19.148;2024-03-02T01:52:04;24.52;;;13.15;;
76978;SDS011;65911;47.502;19.148;2024-03-02T01:55:07;19.98;;;12.13;;
76978;SDS011;65911;47.502;19.148;2024-03-02T01:58:13;22.47;;;11.73;;
76978;SDS011;65911;47.502;19.148;2024-03-02T02:01:15;24.48;;;12.43;;
76978;SDS011;65911;47.502;19.148;2024-03-02T02:04:18;22.33;;;12.80;;
76978;SDS011;65911;47.502;19.148;2024-03-02T02:07:23;23.85;;;12.32;;
76978;SDS011;65911;47.502;19.148;2024-03-02T02:10:25;21.23;;;12.43;;
76978;SDS011;65911;47.502;19.148;2024-03-02T02:13:28;21.25;;;11.50;;
76978;SDS011;65911;47.502;19.148;2024-03-02T02:16:30;23.33;;;12.38;;
76978;SDS011;65911;47.502;19.148;2024-03-02T02:19:32;20.50;;;11.67;;
76978;SDS011;65911;47.502;19.148;2024-03-02T02:22:34;21.73;;;12.55;;
76978;SDS011;65911;47.502;19.148;2024-03-02T02:25:36;24.30;;;12.23;;
76978;SDS011;65911;47.502;19.148;2024-03-02T02:28:38;21.07;;;11.80;;
76978;SDS011;65911;47.502;19.148;2024-03-02T02:31:41;22.33;;;12.00;;
76978;SDS011;65911;47.502;19.148;2024-03-02T02:34:44;23.50;;;12.75;;
76978;SDS011;65911;47.502;19.148;2024-03-02T02:37:46;24.50;;;12.05;;
76978;SDS011;65911;47.502;19.148;2024-03-02T02:40:49;21.00;;;12.55;;
76978;SDS011;65911;47.502;19.148;2024-03-02T02:43:51;21.45;;;11.80;;
76978;SDS011;65911;47.502;19.148;2024-03-02T02:46:53;20.45;;;12.38;;
76978;SDS011;65911;47.502;19.148;2024-03-02T02:49:55;22.20;;;11.33;;
76978;SDS011;65911;47.502;19.148;2024-03-02T02:52:57;22.70;;;12.38;;
76978;SDS011;65911;47.502;19.148;2024-03-02T02:56:00;21.75;;;11.70;;
76978;SDS011;65911;47.502;19.148;2024-03-02T02:59:02;22.13;;;12.00;;
76978;SDS011;65911;47.502;19.148;2024-03-02T03:02:04;20.27;;;11.40;;
76978;SDS011;65911;47.502;19.148;2024-03-02T03:05:07;21.13;;;11.88;;
76978;SDS011;65911;47.502;19.148;2024-03-02T03:08:12;21.98;;;12.15;;
76978;SDS011;65911;47.502;19.148;2024-03-02T03:11:15;23.10;;;12.75;;
76978;SDS011;65911;47.502;19.148;2024-03-02T03:14:17;21.05;;;11.55;;
76978;SDS011;65911;47.502;19.148;2024-03-02T03:17:20;25.92;;;12.60;;
76978;SDS011;65911;47.502;19.148;2024-03-02T03:20:23;21.30;;;11.77;;
76978;SDS011;65911;47.502;19.148;2024-03-02T03:23:25;23.50;;;12.63;;
76978;SDS011;65911;47.502;19.148;2024-03-02T03:26:27;21.60;;;12.00;;
76978;SDS011;65911;47.502;19.148;2024-03-02T03:29:29;24.47;;;12.47;;
76978;SDS011;65911;47.502;19.148;2024-03-02T03:32:32;21.05;;;12.02;;
76978;SDS011;65911;47.502;19.148;2024-03-02T03:35:35;21.73;;;11.98;;
76978;SDS011;65911;47.502;19.148;2024-03-02T03:38:38;24.75;;;12.00;;
76978;SDS011;65911;47.502;19.148;2024-03-02T03:41:40;22.08;;;11.98;;
76978;SDS011;65911;47.502;19.148;2024-03-02T03:44:42;24.08;;;12.45;;
76978;SDS011;65911;47.502;19.148;2024-03-02T03:47:45;19.88;;;12.27;;
76978;SDS011;65911;47.502;19.148;2024-03-02T03:50:47;20.17;;;11.87;;
76978;SDS011;65911;47.502;19.148;2024-03-02T03:53:49;23.55;;;12.65;;
76978;SDS011;65911;47.502;19.148;2024-03-02T03:56:51;20.08;;;12.00;;
76978;SDS011;65911;47.502;19.148;2024-03-02T03:59:54;22.53;;;12.73;;
76978;SDS011;65911;47.502;19.148;2024-03-02T04:02:56;22.67;;;11.80;;
76978;SDS011;65911;47.502;19.148;2024-03-02T04:05:58;23.58;;;12.85;;
76978;SDS011;65911;47.502;19.148;2024-03-02T04:09:00;23.63;;;12.15;;
76978;SDS011;65911;47.502;19.148;2024-03-02T04:12:03;24.25;;;12.57;;
76978;SDS011;65911;47.502;19.148;2024-03-02T04:15:05;21.25;;;11.77;;
76978;SDS011;65911;47.502;19.148;2024-03-02T04:18:08;20.17;;;11.50;;
76978;SDS011;65911;47.502;19.148;2024-03-02T04:21:10;19.43;;;11.60;;
76978;SDS011;65911;47.502;19.148;2024-03-02T04:24:13;22.48;;;11.73;;
76978;SDS011;65911;47.502;19.148;2024-03-02T04:27:15;21.73;;;11.75;;
76978;SDS011;65911;47.502;19.148;2024-03-02T04:30:17;21.60;;;11.90;;
76978;SDS011;65911;47.502;19.148;2024-03-02T04:33:20;18.35;;;11.15;;
76978;SDS011;65911;47.502;19.148;2024-03-02T04:36:22;23.50;;;12.27;;
76978;SDS011;65911;47.502;19.148;2024-03-02T04:39:25;24.20;;;12.20;;
76978;SDS011;65911;47.502;19.148;2024-03-02T04:42:28;23.17;;;12.63;;
76978;SDS011;65911;47.502;19.148;2024-03-02T04:45:30;21.55;;;11.88;;
76978;SDS011;65911;47.502;19.148;2024-03-02T04:48:33;22.33;;;11.48;;
76978;SDS011;65911;47.502;19.148;2024-03-02T04:51:36;21.57;;;11.60;;
76978;SDS011;65911;47.502;19.148;2024-03-02T04:54:38;22.10;;;12.38;;
76978;SDS011;65911;47.502;19.148;2024-03-02T04:58:00;21.27;;;11.90;;
76978;SDS011;65911;47.502;19.148;2024-03-02T05:01:02;20.60;;;12.17;;
76978;SDS011;65911;47.502;19.148;2024-03-02T05:04:05;20.15;;;11.18;;
76978;SDS011;65911;47.502;19.148;2024-03-02T05:07:07;23.02;;;11.90;;
76978;SDS011;65911;47.502;19.148;2024-03-02T05:10:09;23.90;;;12.15;;
76978;SDS011;65911;47.502;19.148;2024-03-02T05:13:13;21.83;;;12.30;;
76978;SDS011;65911;47.502;19.148;2024-03-02T05:16:16;21.92;;;12.32;;
76978;SDS011;65911;47.502;19.148;2024-03-02T05:19:18;22.15;;;11.68;;
76978;SDS011;65911;47.502;19.148;2024-03-02T05:22:20;18.90;;;11.80;;
76978;SDS011;65911;47.502;19.148;2024-03-02T05:25:22;21.08;;;11.55;;
76978;SDS011;65911;47.502;19.148;2024-03-02T05:28:24;21.00;;;11.75;;
76978;SDS011;65911;47.502;19.148;2024-03-02T05:31:29;21.43;;;11.80;;
76978;SDS011;65911;47.502;19.148;2024-03-02T05:35:10;19.27;;;11.48;;
76978;SDS011;65911;47.502;19.148;2024-03-02T05:39:02;22.88;;;12.07;;
76978;SDS011;65911;47.502;19.148;2024-03-02T05:42:10;20.30;;;11.57;;
76978;SDS011;65911;47.502;19.148;2024-03-02T05:45:15;24.25;;;12.50;;
76978;SDS011;65911;47.502;19.148;2024-03-02T05:48:18;19.75;;;11.75;;
76978;SDS011;65911;47.502;19.148;2024-03-02T05:51:21;20.98;;;11.75;;
76978;SDS011;65911;47.502;19.148;2024-03-02T05:54:23;21.33;;;11.83;;
76978;SDS011;65911;47.502;19.148;2024-03-02T05:57:25;20.05;;;11.75;;
76978;SDS011;65911;47.502;19.148;2024-03-02T06:00:47;20.65;;;12.43;;
76978;SDS011;65911;47.502;19.148;2024-03-02T06:03:50;20.70;;;12.20;;
76978;SDS011;65911;47.502;19.148;2024-03-02T06:06:52;21.67;;;12.68;;
76978;SDS011;65911;47.502;19.148;2024-03-02T06:09:56;23.52;;;11.75;;
76978;SDS011;65911;47.502;19.148;2024-03-02T06:12:58;25.85;;;12.80;;
76978;SDS011;65911;47.502;19.148;2024-03-02T06:16:01;22.27;;;12.73;;
76978;SDS011;65911;47.502;19.148;2024-03-02T06:19:03;20.50;;;12.65;;
76978;SDS011;65911;47.502;19.148;2024-03-02T06:22:06;22.58;;;11.57;;
76978;SDS011;65911;47.502;19.148;2024-03-02T06:25:11;21.60;;;12.20;;
76978;SDS011;65911;47.502;19.148;2024-03-02T06:28:13;23.20;;;12.43;;
76978;SDS011;65911;47.502;19.148;2024-03-02T06:31:17;21.83;;;12.48;;
76978;SDS011;65911;47.502;19.148;2024-03-02T06:34:19;21.40;;;12.10;;
76978;SDS011;65911;47.502;19.148;2024-03-02T06:37:21;20.13;;;10.93;;
76978;SDS011;65911;47.502;19.148;2024-03-02T06:40:23;23.15;;;12.63;;
76978;SDS011;65911;47.502;19.148;2024-03-02T06:43:26;24.60;;;11.93;;
76978;SDS011;65911;47.502;19.148;2024-03-02T06:46:28;19.67;;;11.93;;
76978;SDS011;65911;47.502;19.148;2024-03-02T06:49:31;22.52;;;11.40;;
76978;SDS011;65911;47.502;19.148;2024-03-02T06:52:33;24.08;;;11.63;;
76978;SDS011;65911;47.502;19.148;2024-03-02T06:55:35;23.40;;;12.40;;
76978;SDS011;65911;47.502;19.148;2024-03-02T06:58:37;19.25;;;11.77;;
76978;SDS011;65911;47.502;19.148;2024-03-02T07:01:40;19.25;;;11.27;;
76978;SDS011;65911;47.502;19.148;2024-03-02T07:04:45;21.90;;;12.23;;
76978;SDS011;65911;47.502;19.148;2024-03-02T07:08:01;23.73;;;12.30;;
76978;SDS011;65911;47.502;19.148;2024-03-02T07:11:04;22.33;;;11.85;;
76978;SDS011;65911;47.502;19.148;2024-03-02T07:14:06;20.65;;;12.38;;
76978;SDS011;65911;47.502;19.148;2024-03-02T07:17:08;22.45;;;11.70;;
76978;SDS011;65911;47.502;19.148;2024-03-02T07:20:12;19.42;;;12.13;;
76978;SDS011;65911;47.502;19.148;2024-03-02T07:23:15;20.58;;;13.02;;
76978;SDS011;65911;47.502;19.148;2024-03-02T07:26:17;21.20;;;12.13;;
76978;SDS011;65911;47.502;19.148;2024-03-02T07:29:25;19.92;;;11.90;;
76978;SDS011;65911;47.502;19.148;2024-03-02T07:32:27;21.60;;;12.18;;
76978;SDS011;65911;47.502;19.148;2024-03-02T07:35:29;23.47;;;12.40;;
76978;SDS011;65911;47.502;19.148;2024-03-02T07:38:33;21.60;;;11.88;;
76978;SDS011;65911;47.502;19.148;2024-03-02T07:41:37;23.38;;;12.80;;
76978;SDS011;65911;47.502;19.148;2024-03-02T07:44:39;21.17;;;12.10;;
76978;SDS011;65911;47.502;19.148;2024-03-02T07:47:43;23.90;;;13.55;;
76978;SDS011;65911;47.502;19.148;2024-03-02T07:50:45;19.80;;;12.15;;
76978;SDS011;65911;47.502;19.148;2024-03-02T07:53:47;23.15;;;12.50;;
76978;SDS011;65911;47.502;19.148;2024-03-02T07:56:49;21.20;;;11.17;;
76978;SDS011;65911;47.502;19.148;2024-03-02T07:59:52;20.75;;;12.38;;
76978;SDS011;65911;47.502;19.148;2024-03-02T08:02:54;22.90;;;12.63;;
76978;SDS011;65911;47.502;19.148;2024-03-02T08:05:57;20.70;;;12.20;;
76978;SDS011;65911;47.502;19.148;2024-03-02T08:09:00;22.70;;;11.35;;
76978;SDS011;65911;47.502;19.148;2024-03-02T08:12:03;18.90;;;11.43;;
76978;SDS011;65911;47.502;19.148;2024-03-02T08:15:06;21.48;;;12.35;;
76978;SDS011;65911;47.502;19.148;2024-03-02T08:18:08;20.27;;;11.38;;
76978;SDS011;65911;47.502;19.148;2024-03-02T08:21:10;22.85;;;11.98;;
76978;SDS011;65911;47.502;19.148;2024-03-02T08:24:12;22.02;;;12.45;;
76978;SDS011;65911;47.502;19.148;2024-03-02T08:27:15;20.00;;;11.10;;
76978;SDS011;65911;47.502;19.148;2024-03-02T08:30:17;24.05;;;12.50;;
76978;SDS011;65911;47.502;19.148;2024-03-02T08:33:20;19.10;;;11.50;;
76978;SDS011;65911;47.502;19.148;2024-03-02T08:36:23;21.23;;;12.10;;
76978;SDS011;65911;47.502;19.148;2024-03-02T08:39:25;22.45;;;12.25;;
76978;SDS011;65911;47.502;19.148;2024-03-02T08:42:27;21.42;;;11.82;;
76978;SDS011;65911;47.502;19.148;2024-03-02T08:45:30;18.92;;;11.70;;
76978;SDS011;65911;47.502;19.148;2024-03-02T08:48:33;19.67;;;11.75;;
76978;SDS011;65911;47.502;19.148;2024-03-02T08:51:35;22.02;;;11.68;;
76978;SDS011;65911;47.502;19.148;2024-03-02T08:54:38;20.17;;;11.48;;
76978;SDS011;65911;47.502;19.148;2024-03-02T08:57:40;20.30;;;11.03;;
76978;SDS011;65911;47.502;19.148;2024-03-02T09:00:44;20.77;;;11.75;;
76978;SDS011;65911;47.502;19.148;2024-03-02T09:03:46;18.50;;;10.73;;
76978;SDS011;65911;47.502;19.148;2024-03-02T09:06:48;17.87;;;11.27;;
76978;SDS011;65911;47.502;19.148;2024-03-02T09:09:51;17.23;;;10.65;;
76978;SDS011;65911;47.502;19.148;2024-03-02T09:12:54;18.92;;;10.73;;
76978;SDS011;65911;47.502;19.148;2024-03-02T09:15:56;17.98;;;10.02;;
76978;SDS011;65911;47.502;19.148;2024-03-02T09:18:59;16.33;;;9.80;;
76978;SDS011;65911;47.502;19.148;2024-03-02T09:22:02;18.52;;;10.82;;
76978;SDS011;65911;47.502;19.148;2024-03-02T09:25:05;19.60;;;10.95;;
76978;SDS011;65911;47.502;19.148;2024-03-02T09:28:10;16.80;;;9.97;;
76978;SDS011;65911;47.502;19.148;2024-03-02T09:31:12;15.15;;;10.05;;
76978;SDS011;65911;47.502;19.148;2024-03-02T09:34:15;15.50;;;9.48;;
76978;SDS011;65911;47.502;19.148;2024-03-02T09:37:18;14.43;;;9.27;;
76978;SDS011;65911;47.502;19.148;2024-03-02T09:40:21;17.42;;;10.25;;
76978;SDS011;65911;47.502;19.148;2024-03-02T09:43:23;14.45;;;9.57;;
76978;SDS011;65911;47.502;19.148;2024-03-02T09:46:26;13.40;;;8.55;;
76978;SDS011;65911;47.502;19.148;2024-03-02T09:49:28;15.02;;;9.00;;
76978;SDS011;65911;47.502;19.148;2024-03-02T09:52:30;15.55;;;9.50;;
76978;SDS011;65911;47.502;19.148;2024-03-02T09:55:33;15.50;;;9.40;;
76978;SDS011;65911;47.502;19.148;2024-03-02T09:58:35;13.20;;;8.80;;
76978;SDS011;65911;47.502;19.148;2024-03-02T10:01:38;14.00;;;9.50;;
76978;SDS011;65911;47.502;19.148;2024-03-02T10:04:40;13.60;;;8.20;;
76978;SDS011;65911;47.502;19.148;2024-03-02T10:07:42;13.10;;;8.20;;
76978;SDS011;65911;47.502;19.148;2024-03-02T10:11:00;12.30;;;8.30;;
76978;SDS011;65911;47.502;19.148;2024-03-02T10:14:09;12.32;;;7.95;;
76978;SDS011;65911;47.502;19.148;2024-03-02T10:17:17;10.70;;;7.72;;
76978;SDS011;65911;47.502;19.148;2024-03-02T10:20:23;12.10;;;7.75;;
76978;SDS011;65911;47.502;19.148;2024-03-02T10:23:31;12.60;;;7.95;;
76978;SDS011;65911;47.502;19.148;2024-03-02T10:26:52;10.45;;;7.55;;
76978;SDS011;65911;47.502;19.148;2024-03-02T10:29:58;10.37;;;7.20;;
76978;SDS011;65911;47.502;19.148;2024-03-02T10:33:04;11.52;;;7.82;;
76978;SDS011;65911;47.502;19.148;2024-03-02T10:36:09;12.40;;;7.70;;
76978;SDS011;65911;47.502;19.148;2024-03-02T10:39:11;10.43;;;7.90;;
76978;SDS011;65911;47.502;19.148;2024-03-02T10:42:14;10.02;;;7.38;;
76978;SDS011;65911;47.502;19.148;2024-03-02T10:45:17;10.07;;;7.13;;
76978;SDS011;65911;47.502;19.148;2024-03-02T10:48:21;11.77;;;7.78;;
76978;SDS011;65911;47.502;19.148;2024-03-02T10:51:27;11.40;;;7.40;;
76978;SDS011;65911;47.502;19.148;2024-03-02T10:54:33;8.85;;;6.88;;
76978;SDS011;65911;47.502;19.148;2024-03-02T10:57:40;10.38;;;6.50;;
76978;SDS011;65911;47.502;19.148;2024-03-02T11:00:43;10.67;;;6.83;;
76978;SDS011;65911;47.502;19.148;2024-03-02T11:03:47;7.47;;;5.75;;
76978;SDS011;65911;47.502;19.148;2024-03-02T11:06:51;10.13;;;6.50;;
76978;SDS011;65911;47.502;19.148;2024-03-02T11:09:57;8.50;;;6.43;;
76978;SDS011;65911;47.502;19.148;2024-03-02T11:13:02;8.85;;;5.70;;
76978;SDS011;65911;47.502;19.148;2024-03-02T11:16:09;10.15;;;5.97;;
76978;SDS011;65911;47.502;19.148;2024-03-02T11:19:16;7.97;;;6.20;;
76978;SDS011;65911;47.502;19.148;2024-03-02T11:22:19;8.77;;;6.15;;
76978;SDS011;65911;47.502;19.148;2024-03-02T11:25:28;8.35;;;6.07;;
76978;SDS011;65911;47.502;19.148;2024-03-02T11:28:36;8.38;;;5.82;;
76978;SDS011;65911;47.502;19.148;2024-03-02T11:31:58;7.90;;;5.60;;
76978;SDS011;65911;47.502;19.148;2024-03-02T11:35:02;7.32;;;5.55;;
76978;SDS011;65911;47.502;19.148;2024-03-02T11:38:06;7.78;;;5.60;;
76978;SDS011;65911;47.502;19.148;2024-03-02T11:41:09;8.20;;;5.83;;
76978;SDS011;65911;47.502;19.148;2024-03-02T11:44:11;7.63;;;5.97;;
76978;SDS011;65911;47.502;19.148;2024-03-02T11:47:15;7.00;;;5.30;;
76978;SDS011;65911;47.502;19.148;2024-03-02T11:50:34;8.43;;;5.60;;
76978;SDS011;65911;47.502;19.148;2024-03-02T11:53:39;7.72;;;5.55;;
76978;SDS011;65911;47.502;19.148;2024-03-02T11:56:43;8.52;;;6.00;;
76978;SDS011;65911;47.502;19.148;2024-03-02T11:59:48;8.63;;;6.45;;
76978;SDS011;65911;47.502;19.148;2024-03-02T12:03:04;8.10;;;5.93;;
76978;SDS011;65911;47.502;19.148;2024-03-02T12:06:11;7.03;;;5.00;;
76978;SDS011;65911;47.502;19.148;2024-03-02T12:09:15;7.53;;;5.63;;
76978;SDS011;65911;47.502;19.148;2024-03-02T12:12:17;8.23;;;5.17;;
76978;SDS011;65911;47.502;19.148;2024-03-02T12:15:24;9.80;;;5.55;;
76978;SDS011;65911;47.502;19.148;2024-03-02T12:18:27;7.32;;;5.60;;
76978;SDS011;65911;47.502;19.148;2024-03-02T12:21:29;6.60;;;5.13;;
76978;SDS011;65911;47.502;19.148;2024-03-02T12:24:32;7.07;;;5.25;;
76978;SDS011;65911;47.502;19.148;2024-03-02T12:27:34;7.28;;;5.65;;
76978;SDS011;65911;47.502;19.148;2024-03-02T12:30:36;9.05;;;6.07;;
76978;SDS011;65911;47.502;19.148;2024-03-02T12:33:39;8.43;;;6.37;;
76978;SDS011;65911;47.502;19.148;2024-03-02T12:36:42;8.20;;;5.57;;
76978;SDS011;65911;47.502;19.148;2024-03-02T12:39:45;8.82;;;6.30;;
76978;SDS011;65911;47.502;19.148;2024-03-02T12:42:48;9.90;;;6.83;;
76978;SDS011;65911;47.502;19.148;2024-03-02T12:45:52;8.02;;;6.07;;
76978;SDS011;65911;47.502;19.148;2024-03-02T12:48:55;13.57;;;7.40;;
76978;SDS011;65911;47.502;19.148;2024-03-02T12:51:57;9.23;;;6.78;;
76978;SDS011;65911;47.502;19.148;2024-03-02T12:55:00;9.93;;;6.68;;
76978;SDS011;65911;47.502;19.148;2024-03-02T12:58:05;11.18;;;7.90;;
76978;SDS011;65911;47.502;19.148;2024-03-02T13:01:08;9.32;;;6.50;;
76978;SDS011;65911;47.502;19.148;2024-03-02T13:04:13;11.10;;;6.93;;
76978;SDS011;65911;47.502;19.148;2024-03-02T13:07:15;9.93;;;6.38;;
76978;SDS011;65911;47.502;19.148;2024-03-02T13:10:18;13.40;;;7.72;;
76978;SDS011;65911;47.502;19.148;2024-03-02T13:13:20;9.33;;;6.10;;
76978;SDS011;65911;47.502;19.148;2024-03-02T13:16:23;11.18;;;7.05;;
76978;SDS011;65911;47.502;19.148;2024-03-02T13:19:34;12.65;;;7.20;;
76978;SDS011;65911;47.502;19.148;2024-03-02T13:22:36;10.10;;;6.15;;
76978;SDS011;65911;47.502;19.148;2024-03-02T13:25:38;13.23;;;6.43;;
76978;SDS011;65911;47.502;19.148;2024-03-02T13:28:40;10.30;;;6.35;;
76978;SDS011;65911;47.502;19.148;2024-03-02T13:31:43;14.30;;;6.60;;
76978;SDS011;65911;47.502;19.148;2024-03-02T13:34:45;9.67;;;6.17;;
76978;SDS011;65911;47.502;19.148;2024-03-02T13:37:47;10.40;;;6.53;;
76978;SDS011;65911;47.502;19.148;2024-03-02T13:40:51;10.95;;;6.05;;
76978;SDS011;65911;47.502;19.148;2024-03-02T13:43:54;10.13;;;6.47;;
76978;SDS011;65911;47.502;19.148;2024-03-02T13:46:56;11.93;;;6.70;;
76978;SDS011;65911;47.502;19.148;2024-03-02T13:49:59;10.38;;;6.65;;
76978;SDS011;65911;47.502;19.148;2024-03-02T13:53:01;11.20;;;6.43;;
76978;SDS011;65911;47.502;19.148;2024-03-02T13:56:05;10.57;;;6.30;;
76978;SDS011;65911;47.502;19.148;2024-03-02T13:59:07;10.32;;;6.88;;
76978;SDS011;65911;47.502;19.148;2024-03-02T14:02:10;11.48;;;6.38;;
76978;SDS011;65911;47.502;19.148;2024-03-02T14:05:13;12.63;;;6.50;;
76978;SDS011;65911;47.502;19.148;2024-03-02T14:08:15;13.32;;;6.60;;
76978;SDS011;65911;47.502;19.148;2024-03-02T14:11:19;11.52;;;6.80;;
76978;SDS011;65911;47.502;19.148;2024-03-02T14:14:21;12.27;;;6.97;;
76978;SDS011;65911;47.502;19.148;2024-03-02T14:17:25;10.63;;;6.18;;
76978;SDS011;65911;47.502;19.148;2024-03-02T14:20:27;11.82;;;6.80;;
76978;SDS011;65911;47.502;19.148;2024-03-02T14:23:29;10.82;;;6.93;;
76978;SDS011;65911;47.502;19.148;2024-03-02T14:26:31;11.32;;;6.18;;
76978;SDS011;65911;47.502;19.148;2024-03-02T14:29:35;11.88;;;6.25;;
76978;SDS011;65911;47.502;19.148;2024-03-02T14:32:39;10.40;;;6.85;;
76978;SDS011;65911;47.502;19.148;2024-03-02T14:35:42;11.27;;;6.00;;
76978;SDS011;65911;47.502;19.148;2024-03-02T14:38:44;10.55;;;6.47;;
76978;SDS011;65911;47.502;19.148;2024-03-02T14:41:47;13.05;;;6.85;;
76978;SDS011;65911;47.502;19.148;2024-03-02T14:44:50;10.23;;;6.20;;
76978;SDS011;65911;47.502;19.148;2024-03-02T14:47:53;13.15;;;6.88;;
76978;SDS011;65911;47.502;19.148;2024-03-02T14:50:55;13.65;;;7.50;;
76978;SDS011;65911;47.502;19.148;2024-03-02T14:53:57;13.50;;;7.00;;
76978;SDS011;65911;47.502;19.148;2024-03-02T14:57:00;12.55;;;6.90;;
76978;SDS011;65911;47.502;19.148;2024-03-02T15:00:02;14.30;;;7.57;;
76978;SDS011;65911;47.502;19.148;2024-03-02T15:03:05;17.00;;;9.05;;
76978;SDS011;65911;47.502;19.148;2024-03-02T15:06:10;14.73;;;8.43;;
76978;SDS011;65911;47.502;19.148;2024-03-02T15:09:12;16.02;;;9.07;;
76978;SDS011;65911;47.502;19.148;2024-03-02T15:12:14;21.08;;;8.75;;
76978;SDS011;65911;47.502;19.148;2024-03-02T15:15:17;19.70;;;9.07;;
76978;SDS011;65911;47.502;19.148;2024-03-02T15:18:19;17.10;;;8.60;;
76978;SDS011;65911;47.502;19.148;2024-03-02T15:21:22;17.60;;;9.00;;
76978;SDS011;65911;47.502;19.148;2024-03-02T15:24:24;18.02;;;9.63;;
76978;SDS011;65911;47.502;19.148;2024-03-02T15:27:27;17.92;;;9.23;;
76978;SDS011;65911;47.502;19.148;2024-03-02T15:30:29;17.00;;;8.82;;
76978;SDS011;65911;47.502;19.148;2024-03-02T15:33:31;18.00;;;9.57;;
76978;SDS011;65911;47.502;19.148;2024-03-02T15:36:34;19.13;;;9.60;;
76978;SDS011;65911;47.502;19.148;2024-03-02T15:39:37;21.77;;;10.18;;
76978;SDS011;65911;47.502;19.148;2024-03-02T15:42:39;20.95;;;10.60;;
76978;SDS011;65911;47.502;19.148;2024-03-02T15:45:41;19.93;;;10.67;;
76978;SDS011;65911;47.502;19.148;2024-03-02T15:48:43;21.48;;;10.20;;
76978;SDS011;65911;47.502;19.148;2024-03-02T15:51:46;20.83;;;10.52;;
76978;SDS011;65911;47.502;19.148;2024-03-02T15:55:02;22.05;;;11.52;;
76978;SDS011;65911;47.502;19.148;2024-03-02T15:58:08;21.25;;;11.10;;
76978;SDS011;65911;47.502;19.148;2024-03-02T16:01:32;24.63;;;11.30;;
76978;SDS011;65911;47.502;19.148;2024-03-02T16:04:35;26.15;;;11.65;;
76978;SDS011;65911;47.502;19.148;2024-03-02T16:07:51;18.77;;;10.77;;
76978;SDS011;65911;47.502;19.148;2024-03-02T16:10:54;21.95;;;11.25;;
76978;SDS011;65911;47.502;19.148;2024-03-02T16:13:58;23.52;;;11.32;;
76978;SDS011;65911;47.502;19.148;2024-03-02T16:17:00;24.40;;;11.47;;
76978;SDS011;65911;47.502;19.148;2024-03-02T16:20:02;27.40;;;11.65;;
76978;SDS011;65911;47.502;19.148;2024-03-02T16:23:08;24.52;;;11.77;;
76978;SDS011;65911;47.502;19.148;2024-03-02T16:26:13;21.27;;;10.32;;
76978;SDS011;65911;47.502;19.148;2024-03-02T16:29:15;21.20;;;10.88;;
76978;SDS011;65911;47.502;19.148;2024-03-02T16:32:18;19.63;;;10.80;;
76978;SDS011;65911;47.502;19.148;2024-03-02T16:35:20;21.70;;;10.90;;
76978;SDS011;65911;47.502;19.148;2024-03-02T16:38:22;20.07;;;10.40;;
76978;SDS011;65911;47.502;19.148;2024-03-02T16:41:38;18.17;;;9.10;;
76978;SDS011;65911;47.502;19.148;2024-03-02T16:44:48;20.48;;;9.07;;
76978;SDS011;65911;47.502;19.148;2024-03-02T16:47:53;18.40;;;8.83;;
76978;SDS011;65911;47.502;19.148;2024-03-02T16:50:57;17.45;;;8.82;;
76978;SDS011;65911;47.502;19.148;2024-03-02T16:53:59;18.98;;;8.98;;
76978;SDS011;65911;47.502;19.148;2024-03-02T16:57:01;17.10;;;9.40;;
76978;SDS011;65911;47.502;19.148;2024-03-02T17:00:04;15.82;;;9.00;;
76978;SDS011;65911;47.502;19.148;2024-03-02T17:03:09;17.35;;;9.27;;
76978;SDS011;65911;47.502;19.148;2024-03-02T17:06:12;15.70;;;9.50;;
76978;SDS011;65911;47.502;19.148;2024-03-02T17:09:14;17.63;;;8.90;;
76978;SDS011;65911;47.502;19.148;2024-03-02T17:12:16;15.70;;;8.93;;
76978;SDS011;65911;47.502;19.148;2024-03-02T17:15:22;15.98;;;8.50;;
76978;SDS011;65911;47.502;19.148;2024-03-02T17:18:24;16.10;;;9.07;;
76978;SDS011;65911;47.502;19.148;2024-03-02T17:21:29;15.18;;;8.48;;
76978;SDS011;65911;47.502;19.148;2024-03-02T17:24:32;16.98;;;8.93;;
76978;SDS011;65911;47.502;19.148;2024-03-02T17:27:34;14.68;;;8.40;;
76978;SDS011;65911;47.502;19.148;2024-03-02T17:30:36;13.70;;;7.95;;
76978;SDS011;65911;47.502;19.148;2024-03-02T17:33:39;14.93;;;9.48;;
76978;SDS011;65911;47.502;19.148;2024-03-02T17:36:41;13.82;;;8.82;;
76978;SDS011;65911;47.502;19.148;2024-03-02T17:39:43;14.53;;;8.23;;
76978;SDS011;65911;47.502;19.148;2024-03-02T17:42:47;15.25;;;8.43;;
76978;SDS011;65911;47.502;19.148;2024-03-02T17:45:49;15.73;;;8.90;;
76978;SDS011;65911;47.502;19.148;2024-03-02T17:48:51;15.97;;;9.17;;